createdAt,value
2022-10-11T00:01:26.080Z,7.10
2022-10-11T00:03:55.066Z,6.25
2022-10-11T00:06:21.737Z,6.25
2022-10-11T00:08:52.935Z,6.55
2022-10-11T00:11:21.923Z,6.38
2022-10-11T00:13:48.656Z,7.28
2022-10-11T00:16:17.619Z,6.20
2022-10-11T00:18:46.903Z,6.55
2022-10-11T00:21:15.081Z,5.57
2022-10-11T00:23:42.881Z,6.38
2022-10-11T00:26:11.074Z,5.88
2022-10-11T00:28:40.484Z,6.32
2022-10-11T00:31:16.152Z,6.32
2022-10-11T00:33:42.873Z,5.80
2022-10-11T00:36:14.712Z,6.18
2022-10-11T00:38:46.804Z,6.18
2022-10-11T00:41:16.310Z,5.50
2022-10-11T00:43:43.400Z,5.88
2022-10-11T00:46:18.647Z,6.25
2022-10-11T00:49:13.608Z,5.63
2022-10-11T00:51:51.753Z,5.50
2022-10-11T00:54:23.384Z,6.03
2022-10-11T00:56:55.933Z,6.13
2022-10-11T00:59:28.000Z,6.15
2022-10-11T01:01:56.969Z,6.25
2022-10-11T01:04:26.599Z,6.50
2022-10-11T01:06:53.695Z,6.05
2022-10-11T01:09:23.702Z,5.50
2022-10-11T01:11:53.571Z,7.15
2022-10-11T01:14:26.564Z,5.75
2022-10-11T01:16:59.422Z,5.75
2022-10-11T01:19:59.483Z,6.20
2022-10-11T01:23:07.457Z,6.25
2022-10-11T01:25:40.170Z,6.22
2022-10-11T01:28:34.832Z,6.07
2022-10-11T01:31:26.068Z,6.53
2022-10-11T01:34:05.688Z,6.38
2022-10-11T01:36:45.394Z,6.35
2022-10-11T01:39:21.171Z,5.45
2022-10-11T01:41:51.395Z,6.47
2022-10-11T01:44:20.848Z,6.13
2022-10-11T01:46:48.045Z,5.97
2022-10-11T01:49:14.717Z,5.88
2022-10-11T01:51:47.330Z,5.95
2022-10-11T01:54:22.570Z,5.25
2022-10-11T01:57:03.478Z,6.28
2022-10-11T02:00:00.097Z,5.35
2022-10-11T02:02:52.956Z,6.32
2022-10-11T02:05:41.039Z,6.55
2022-10-11T02:08:16.973Z,5.68
2022-10-11T02:10:51.787Z,6.00
2022-10-11T02:13:27.004Z,6.15
2022-10-11T02:15:57.579Z,6.50
2022-10-11T02:18:27.548Z,5.93
2022-10-11T02:20:57.607Z,5.63
2022-10-11T02:23:34.747Z,5.97
2022-10-11T02:26:07.035Z,6.68
2022-10-11T02:28:36.134Z,6.28
2022-10-11T02:31:07.257Z,6.25
2022-10-11T02:33:42.879Z,5.97
2022-10-11T02:36:25.568Z,5.63
2022-10-11T02:38:58.815Z,5.40
2022-10-11T02:41:32.870Z,5.82
2022-10-11T02:44:11.071Z,6.32
2022-10-11T02:46:42.926Z,5.95
2022-10-11T02:49:10.177Z,5.47
2022-10-11T02:51:37.082Z,5.88
2022-10-11T02:54:03.983Z,5.93
2022-10-11T02:56:30.697Z,6.05
2022-10-11T02:58:57.401Z,5.60
2022-10-11T03:01:29.014Z,5.47
2022-10-11T03:03:57.982Z,6.18
2022-10-11T03:06:24.632Z,5.28
2022-10-11T03:08:51.329Z,5.28
2022-10-11T03:11:18.005Z,5.75
2022-10-11T03:13:44.659Z,5.63
2022-10-11T03:16:11.585Z,5.45
2022-10-11T03:18:40.979Z,4.68
2022-10-11T03:21:07.700Z,5.43
2022-10-11T03:23:34.413Z,5.10
2022-10-11T03:26:06.392Z,4.30
2022-10-11T03:28:36.058Z,4.18
2022-10-11T03:33:29.364Z,4.80
2022-10-11T03:35:58.346Z,4.90
2022-10-11T03:38:25.041Z,4.43
2022-10-11T03:40:52.145Z,4.78
2022-10-11T03:43:18.823Z,4.65
2022-10-11T03:45:45.617Z,5.38
2022-10-11T03:48:17.108Z,4.95
2022-10-11T03:50:43.810Z,4.55
2022-10-11T03:53:10.597Z,5.22
2022-10-11T03:55:45.618Z,4.70
2022-10-11T03:58:14.687Z,5.03
2022-10-11T04:00:41.731Z,5.68
2022-10-11T04:03:11.095Z,4.47
2022-10-11T04:08:11.948Z,4.55
2022-10-11T04:10:40.153Z,4.20
2022-10-11T04:13:07.876Z,4.75
2022-10-11T04:15:34.670Z,5.10
2022-10-11T04:18:01.415Z,3.90
2022-10-11T04:20:28.104Z,4.45
2022-10-11T04:22:57.078Z,4.30
2022-10-11T04:25:24.019Z,4.50
2022-10-11T04:27:50.724Z,4.47
2022-10-11T04:30:19.845Z,4.80
2022-10-11T04:32:48.772Z,4.30
2022-10-11T04:35:18.260Z,4.22
2022-10-11T04:37:45.112Z,4.45
2022-10-11T04:40:12.397Z,4.82
2022-10-11T04:42:39.180Z,4.93
2022-10-11T04:45:06.537Z,4.85
2022-10-11T04:47:35.574Z,4.47
2022-10-11T04:50:02.290Z,4.53
2022-10-11T04:52:34.010Z,5.18
2022-10-11T04:55:02.941Z,5.05
2022-10-11T04:57:29.626Z,4.68
2022-10-11T04:59:56.298Z,4.53
2022-10-11T05:02:30.928Z,4.90
2022-10-11T05:05:00.217Z,4.47
2022-10-11T05:07:29.088Z,4.68
2022-10-11T05:09:55.774Z,4.35
2022-10-11T05:12:22.456Z,5.75
2022-10-11T05:14:51.425Z,4.47
2022-10-11T05:17:18.155Z,4.78
2022-10-11T05:19:53.815Z,4.25
2022-10-11T05:22:20.717Z,4.60
2022-10-11T05:25:04.868Z,4.78
2022-10-11T05:27:33.753Z,4.10
2022-10-11T05:30:00.443Z,4.63
2022-10-11T05:32:28.145Z,4.50
2022-10-11T05:34:57.284Z,5.30
2022-10-11T05:37:27.048Z,5.03
2022-10-11T05:39:58.281Z,5.40
2022-10-11T05:42:27.041Z,4.57
2022-10-11T05:44:56.197Z,4.90
2022-10-11T05:47:25.160Z,4.13
2022-10-11T05:49:54.922Z,4.13
2022-10-11T05:52:21.642Z,5.22
2022-10-11T05:54:48.778Z,5.18
2022-10-11T05:57:16.016Z,4.70
2022-10-11T05:59:45.171Z,4.18
2022-10-11T06:02:12.862Z,4.07
2022-10-11T06:04:47.040Z,3.40
2022-10-11T06:07:19.080Z,4.22
2022-10-11T06:09:48.005Z,4.95
2022-10-11T06:12:15.260Z,4.40
2022-10-11T06:14:44.659Z,4.38
2022-10-11T06:17:13.758Z,4.03
2022-10-11T06:19:40.483Z,4.75
2022-10-11T06:22:09.570Z,5.18
2022-10-11T06:24:38.484Z,3.70
2022-10-11T06:27:05.222Z,4.43
2022-10-11T06:29:31.905Z,4.50
2022-10-11T06:32:01.174Z,4.45
2022-10-11T06:36:56.803Z,4.50
2022-10-11T06:39:23.855Z,4.65
2022-10-11T06:41:55.456Z,4.72
2022-10-11T06:44:22.173Z,5.60
2022-10-11T06:46:48.922Z,4.78
2022-10-11T06:49:19.357Z,5.57
2022-10-11T06:51:49.127Z,4.65
2022-10-11T06:54:15.809Z,4.70
2022-10-11T06:56:42.494Z,4.85
2022-10-11T06:59:15.051Z,5.20
2022-10-11T07:01:44.108Z,4.88
2022-10-11T07:04:15.142Z,4.55
2022-10-11T07:06:42.180Z,5.30
2022-10-11T07:09:12.131Z,5.13
2022-10-11T07:11:41.219Z,5.10
2022-10-11T07:14:08.169Z,7.20
2022-10-11T07:16:36.570Z,6.75
2022-10-11T07:19:07.551Z,6.10
2022-10-11T07:21:35.264Z,6.07
2022-10-11T07:24:04.666Z,6.68
2022-10-11T07:26:38.947Z,7.97
2022-10-11T07:29:08.061Z,10.93
2022-10-11T07:31:44.596Z,10.73
2022-10-11T07:34:13.547Z,11.10
2022-10-11T07:36:40.299Z,5.80
2022-10-11T07:39:07.866Z,5.82
2022-10-11T07:41:35.104Z,5.60
2022-10-11T07:44:03.240Z,6.68
2022-10-11T07:46:30.121Z,6.68
2022-10-11T07:48:56.841Z,9.00
2022-10-11T07:51:27.495Z,7.57
2022-10-11T07:53:57.246Z,8.35
2022-10-11T07:56:26.389Z,9.07
2022-10-11T07:58:54.911Z,8.30
2022-10-11T08:01:22.101Z,6.55
2022-10-11T08:03:51.627Z,5.15
2022-10-11T08:06:22.014Z,6.47
2022-10-11T08:08:51.112Z,5.90
2022-10-11T08:11:27.092Z,7.65
2022-10-11T08:13:53.932Z,4.53
2022-10-11T08:16:23.498Z,5.15
2022-10-11T08:18:50.562Z,4.05
2022-10-11T08:21:20.249Z,4.60
2022-10-11T08:23:51.723Z,5.95
2022-10-11T08:26:21.211Z,5.20
2022-10-11T08:28:50.471Z,5.95
2022-10-11T08:31:20.038Z,5.43
2022-10-11T08:33:46.816Z,4.28
2022-10-11T08:36:15.924Z,4.28
2022-10-11T08:38:42.752Z,3.78
2022-10-11T08:41:33.705Z,4.07
2022-10-11T08:44:14.985Z,4.07
2022-10-11T08:46:46.973Z,3.80
2022-10-11T08:49:15.800Z,4.82
2022-10-11T08:51:48.156Z,4.70
2022-10-11T08:54:16.828Z,4.38
2022-10-11T08:56:45.028Z,5.28
2022-10-11T08:59:11.659Z,4.78
2022-10-11T09:01:57.861Z,5.10
2022-10-11T09:04:24.631Z,5.03
2022-10-11T09:07:07.734Z,4.60
2022-10-11T09:09:59.218Z,5.18
2022-10-11T09:12:32.809Z,4.55
2022-10-11T09:15:10.238Z,4.65
2022-10-11T09:17:47.079Z,5.25
2022-10-11T09:20:31.760Z,4.95
2022-10-11T09:23:04.155Z,6.78
2022-10-11T09:25:31.065Z,5.88
2022-10-11T09:28:05.309Z,6.32
2022-10-11T09:30:35.680Z,7.35
2022-10-11T09:33:20.502Z,4.68
2022-10-11T09:35:52.527Z,5.07
2022-10-11T09:38:26.189Z,5.03
2022-10-11T09:40:52.891Z,5.05
2022-10-11T09:43:22.068Z,5.55
2022-10-11T09:48:25.198Z,5.05
2022-10-11T09:50:54.904Z,5.35
2022-10-11T09:53:54.620Z,5.63
2022-10-11T09:56:22.612Z,5.65
2022-10-11T09:58:49.694Z,6.05
2022-10-11T10:01:29.710Z,6.30
2022-10-11T10:04:08.867Z,6.82
2022-10-11T10:06:39.385Z,7.07
2022-10-11T10:09:19.948Z,6.95
2022-10-11T10:11:47.331Z,6.32
2022-10-11T10:14:25.759Z,7.13
2022-10-11T10:17:05.667Z,7.05
2022-10-11T10:19:54.453Z,5.68
2022-10-11T10:24:49.186Z,6.13
2022-10-11T10:27:21.475Z,6.45
2022-10-11T10:30:21.955Z,5.93
2022-10-11T10:32:51.633Z,5.97
2022-10-11T10:35:39.037Z,6.72
2022-10-11T10:38:28.205Z,6.70
2022-10-11T10:41:00.303Z,6.10
2022-10-11T10:43:29.437Z,6.20
2022-10-11T10:46:11.443Z,5.85
2022-10-11T10:49:19.111Z,6.60
2022-10-11T10:52:06.993Z,6.47
2022-10-11T10:54:59.930Z,7.25
2022-10-11T10:57:33.871Z,6.57
2022-10-11T11:00:06.510Z,6.47
2022-10-11T11:02:45.713Z,6.82
2022-10-11T11:05:34.186Z,6.75
2022-10-11T11:08:30.654Z,8.02
2022-10-11T11:11:01.529Z,7.72
2022-10-11T11:13:45.806Z,7.20
2022-10-11T11:16:14.180Z,7.15
2022-10-11T11:18:43.830Z,7.07
2022-10-11T11:21:16.425Z,6.90
2022-10-11T11:23:46.243Z,7.47
2022-10-11T11:26:44.158Z,7.35
2022-10-11T11:29:35.820Z,6.70
2022-10-11T11:32:11.317Z,6.85
2022-10-11T11:34:51.356Z,6.15
2022-10-11T11:37:24.266Z,7.03
2022-10-11T11:40:02.174Z,7.32
2022-10-11T11:42:40.582Z,7.93
2022-10-11T11:45:23.937Z,7.82
2022-10-11T11:48:12.929Z,6.95
2022-10-11T11:50:45.045Z,5.57
2022-10-11T11:53:35.077Z,6.65
2022-10-11T11:56:17.515Z,6.90
2022-10-11T11:59:03.129Z,6.60
2022-10-11T12:02:01.537Z,7.68
2022-10-11T12:04:37.571Z,6.30
2022-10-11T12:07:16.284Z,5.97
2022-10-11T12:09:46.164Z,8.15
2022-10-11T12:12:36.280Z,8.05
2022-10-11T12:15:10.218Z,6.88
2022-10-11T12:17:57.680Z,6.47
2022-10-11T12:20:29.362Z,7.10
2022-10-11T12:22:58.525Z,6.90
2022-10-11T12:25:33.183Z,6.63
2022-10-11T12:28:02.581Z,7.03
2022-10-11T12:30:47.033Z,6.25
2022-10-11T12:33:21.487Z,6.60
2022-10-11T12:36:08.423Z,6.40
2022-10-11T12:38:40.120Z,6.55
2022-10-11T12:41:09.822Z,6.53
2022-10-11T12:44:02.645Z,6.30
2022-10-11T12:46:31.433Z,6.22
2022-10-11T12:49:04.054Z,6.45
2022-10-11T12:51:33.261Z,7.68
2022-10-11T12:54:37.599Z,6.90
2022-10-11T12:57:22.479Z,6.50
2022-10-11T12:59:49.497Z,7.05
2022-10-11T13:02:38.655Z,6.78
2022-10-11T13:05:15.373Z,6.72
2022-10-11T13:07:45.192Z,6.82
2022-10-11T13:10:17.104Z,7.43
2022-10-11T13:12:46.324Z,6.80
2022-10-11T13:15:15.842Z,6.72
2022-10-11T13:17:43.109Z,6.95
2022-10-11T13:20:17.022Z,6.90
2022-10-11T13:22:47.464Z,6.57
2022-10-11T13:25:28.552Z,7.22
2022-10-11T13:27:57.253Z,6.93
2022-10-11T13:30:28.330Z,6.85
2022-10-11T13:32:55.470Z,6.47
2022-10-11T13:35:37.082Z,6.10
2022-10-11T13:38:07.905Z,5.40
2022-10-11T13:40:40.736Z,6.25
2022-10-11T13:43:07.994Z,5.93
2022-10-11T13:45:36.984Z,5.50
2022-10-11T13:48:06.117Z,7.53
2022-10-11T13:50:34.611Z,7.00
2022-10-11T13:53:22.088Z,6.25
2022-10-11T13:55:53.695Z,5.97
2022-10-11T13:58:32.676Z,5.47
2022-10-11T14:01:23.898Z,6.07
2022-10-11T14:03:59.753Z,5.40
2022-10-11T14:06:48.701Z,6.25
2022-10-11T14:09:26.847Z,5.82
2022-10-11T14:11:57.338Z,7.03
2022-10-11T14:14:40.194Z,6.28
2022-10-11T14:17:18.750Z,5.88
2022-10-11T14:20:10.955Z,5.47
2022-10-11T14:22:38.199Z,6.43
2022-10-11T14:25:05.569Z,7.00
2022-10-11T14:27:32.325Z,6.35
2022-10-11T14:30:26.110Z,6.43
2022-10-11T14:32:52.375Z,6.63
2022-10-11T14:35:32.038Z,7.18
2022-10-11T14:37:59.013Z,7.10
2022-10-11T14:40:28.537Z,7.75
2022-10-11T14:42:56.967Z,7.20
2022-10-11T14:45:25.861Z,8.23
2022-10-11T14:47:54.842Z,7.63
2022-10-11T14:50:49.381Z,7.45
2022-10-11T14:53:16.470Z,7.65
2022-10-11T14:55:45.675Z,7.18
2022-10-11T14:58:16.748Z,7.55
2022-10-11T15:00:48.651Z,7.15
2022-10-11T15:03:15.421Z,7.90
2022-10-11T15:05:44.392Z,10.10
2022-10-11T15:08:15.002Z,7.63
2022-10-11T15:10:42.107Z,8.20
2022-10-11T15:13:13.548Z,9.60
2022-10-11T15:15:45.515Z,8.85
2022-10-11T15:18:13.492Z,8.55
2022-10-11T15:20:42.883Z,7.90
2022-10-11T15:23:09.980Z,7.65
2022-10-11T15:25:37.854Z,7.80
2022-10-11T15:28:08.275Z,7.80
2022-10-11T15:30:40.998Z,7.85
2022-10-11T15:33:15.416Z,8.10
2022-10-11T15:35:44.801Z,8.65
2022-10-11T15:38:24.304Z,9.18
2022-10-11T15:40:54.454Z,8.50
2022-10-11T15:43:24.986Z,8.82
2022-10-11T15:45:57.917Z,9.38
2022-10-11T15:48:26.427Z,9.23
2022-10-11T15:50:54.344Z,10.68
2022-10-11T15:53:25.771Z,10.57
2022-10-11T15:55:57.361Z,9.93
2022-10-11T15:58:31.237Z,10.18
2022-10-11T16:01:00.550Z,10.20
2022-10-11T16:03:29.053Z,10.32
2022-10-11T16:06:03.891Z,10.77
2022-10-11T16:08:31.973Z,10.07
2022-10-11T16:11:01.665Z,9.82
2022-10-11T16:13:28.388Z,9.88
2022-10-11T16:15:57.766Z,9.98
2022-10-11T16:18:24.463Z,10.27
2022-10-11T16:20:53.933Z,9.90
2022-10-11T16:23:23.371Z,10.60
2022-10-11T16:25:58.205Z,10.77
2022-10-11T16:28:25.501Z,11.00
2022-10-11T16:30:52.524Z,11.60
2022-10-11T16:33:19.618Z,10.57
2022-10-11T16:35:49.044Z,11.38
2022-10-11T16:38:15.855Z,10.55
2022-10-11T16:40:43.375Z,10.82
2022-10-11T16:43:12.571Z,10.52
2022-10-11T16:45:41.507Z,11.48
2022-10-11T16:48:08.610Z,12.45
2022-10-11T16:50:39.307Z,12.60
2022-10-11T16:53:06.599Z,12.52
2022-10-11T16:55:33.283Z,12.13
2022-10-11T16:58:00.181Z,11.38
2022-10-11T17:00:31.775Z,10.98
2022-10-11T17:02:58.575Z,12.05
2022-10-11T17:07:54.182Z,11.43
2022-10-11T17:10:39.185Z,13.30
2022-10-11T17:13:08.452Z,13.27
2022-10-11T17:15:36.158Z,11.50
2022-10-11T17:18:05.713Z,12.18
2022-10-11T17:20:34.761Z,12.13
2022-10-11T17:23:01.593Z,13.00
2022-10-11T17:25:28.334Z,13.18
2022-10-11T17:27:56.147Z,13.45
2022-10-11T17:30:24.197Z,12.60
2022-10-11T17:32:51.939Z,11.65
2022-10-11T17:35:18.659Z,12.65
2022-10-11T17:37:45.398Z,13.25
2022-10-11T17:40:14.435Z,12.25
2022-10-11T17:42:41.155Z,10.10
2022-10-11T17:45:08.688Z,10.40
2022-10-11T17:47:35.359Z,9.43
2022-10-11T17:50:04.755Z,10.00
2022-10-11T17:52:31.488Z,9.23
2022-10-11T17:55:00.643Z,8.90
2022-10-11T17:59:56.291Z,8.30
2022-10-11T18:02:23.843Z,8.77
2022-10-11T18:04:52.939Z,8.27
2022-10-11T18:07:21.854Z,7.90
2022-10-11T18:09:48.588Z,8.23
2022-10-11T18:12:17.598Z,8.88
2022-10-11T18:14:44.370Z,8.50
2022-10-11T18:17:11.094Z,8.27
2022-10-11T18:19:37.954Z,8.43
2022-10-11T18:22:07.329Z,7.75
2022-10-11T18:24:34.337Z,7.13
2022-10-11T18:27:05.583Z,7.97
2022-10-11T18:29:34.719Z,8.02
2022-10-11T18:34:30.497Z,8.38
2022-10-11T18:37:00.175Z,7.63
2022-10-11T18:39:29.058Z,8.05
2022-10-11T18:41:55.895Z,8.60
2022-10-11T18:44:25.053Z,8.75
2022-10-11T18:46:54.107Z,8.05
2022-10-11T18:49:20.779Z,7.78
2022-10-11T18:51:49.818Z,7.40
2022-10-11T18:54:21.181Z,11.52
2022-10-11T18:56:50.936Z,11.15
2022-10-11T18:59:22.391Z,9.23
2022-10-11T19:01:54.013Z,8.63
2022-10-11T19:04:23.019Z,9.02
2022-10-11T19:06:53.313Z,10.20
2022-10-11T19:09:22.742Z,11.35
2022-10-11T19:11:51.827Z,10.60
2022-10-11T19:14:21.193Z,8.93
2022-10-11T19:16:51.430Z,9.75
2022-10-11T19:19:20.490Z,10.32
2022-10-11T19:21:49.640Z,10.20
2022-10-11T19:26:43.688Z,10.38
2022-10-11T19:29:19.775Z,9.73
2022-10-11T19:31:48.891Z,9.77
2022-10-11T19:34:19.100Z,10.88
2022-10-11T19:36:51.050Z,9.38
2022-10-11T19:39:21.069Z,10.02
2022-10-11T19:41:47.827Z,10.48
2022-10-11T19:44:17.542Z,10.20
2022-10-11T19:46:52.740Z,10.38
2022-10-11T19:49:25.338Z,11.70
2022-10-11T19:51:55.758Z,12.20
2022-10-11T19:54:22.852Z,11.75
2022-10-11T19:56:52.623Z,12.18
2022-10-11T19:59:21.759Z,11.73
2022-10-11T20:01:52.659Z,11.75
2022-10-11T20:04:51.066Z,13.25
2022-10-11T20:07:07.386Z,10.90
2022-10-11T20:09:34.180Z,10.80
2022-10-11T20:12:03.103Z,11.15
2022-10-11T20:14:32.031Z,10.18
2022-10-11T20:16:58.837Z,11.05
2022-10-11T20:19:31.106Z,10.43
2022-10-11T20:21:59.169Z,10.18
2022-10-11T20:24:28.933Z,13.77
2022-10-11T20:26:58.358Z,10.65
2022-10-11T20:29:25.483Z,10.48
2022-10-11T20:31:56.716Z,10.82
2022-10-11T20:34:23.630Z,10.55
2022-10-11T20:36:50.474Z,10.27
2022-10-11T20:39:17.945Z,10.15
2022-10-11T20:41:44.663Z,9.65
2022-10-11T20:44:15.903Z,11.63
2022-10-11T20:46:42.674Z,11.07
2022-10-11T20:49:11.331Z,10.65
2022-10-11T20:51:39.929Z,11.85
2022-10-11T20:54:06.608Z,10.68
2022-10-11T20:56:34.056Z,11.68
2022-10-11T20:59:00.839Z,11.25
2022-10-11T21:01:30.615Z,12.35
2022-10-11T21:03:58.218Z,12.50
2022-10-11T21:06:33.476Z,11.15
2022-10-11T21:09:01.036Z,12.00
2022-10-11T21:11:28.788Z,12.05
2022-10-11T21:14:05.966Z,11.98
2022-10-11T21:16:34.002Z,13.00
2022-10-11T21:19:02.231Z,12.20
2022-10-11T21:21:32.731Z,11.70
2022-10-11T21:24:01.408Z,12.32
2022-10-11T21:26:35.246Z,12.30
2022-10-11T21:29:04.224Z,12.40
2022-10-11T21:31:34.553Z,12.07
2022-10-11T21:34:02.920Z,12.75
2022-10-11T21:36:29.636Z,12.25
2022-10-11T21:38:56.361Z,12.40
2022-10-11T21:41:25.490Z,11.63
2022-10-11T21:43:52.635Z,11.50
2022-10-11T21:46:22.271Z,12.20
2022-10-11T21:48:52.156Z,12.23
2022-10-11T21:51:27.102Z,11.70
2022-10-11T21:53:55.855Z,13.38
2022-10-11T21:56:25.259Z,12.02
2022-10-11T22:01:20.841Z,12.23
2022-10-11T22:03:48.322Z,12.48
2022-10-11T22:06:18.223Z,12.57
2022-10-11T22:08:45.156Z,12.07
2022-10-11T22:11:12.356Z,12.07
2022-10-11T22:13:39.042Z,11.48
2022-10-11T22:16:07.496Z,11.63
2022-10-11T22:18:39.312Z,11.53
2022-10-11T22:21:13.765Z,11.52
2022-10-11T22:23:44.638Z,10.23
2022-10-11T22:26:22.887Z,11.27
2022-10-11T22:28:50.126Z,11.18
2022-10-11T22:31:19.423Z,11.27
2022-10-11T22:33:46.413Z,11.63
2022-10-11T22:36:13.869Z,11.07
2022-10-11T22:38:42.448Z,11.48
2022-10-11T22:41:14.968Z,10.70
2022-10-11T22:43:41.828Z,10.30
2022-10-11T22:46:08.916Z,9.60
2022-10-11T22:48:35.959Z,10.00
2022-10-11T22:51:02.871Z,10.77
2022-10-11T22:53:30.483Z,11.23
2022-10-11T22:55:57.125Z,9.05
2022-10-11T22:58:23.997Z,10.20
2022-10-11T23:00:50.737Z,10.73
2022-10-11T23:03:20.094Z,10.52
2022-10-11T23:08:22.658Z,10.25
2022-10-11T23:10:49.343Z,10.10
2022-10-11T23:13:18.333Z,12.05
2022-10-11T23:15:45.234Z,11.70
2022-10-11T23:18:12.646Z,10.55
2022-10-11T23:20:44.159Z,10.27
2022-10-11T23:25:39.691Z,10.23
2022-10-11T23:28:06.419Z,10.27
2022-10-11T23:30:35.314Z,10.52
2022-10-11T23:33:06.704Z,10.85
2022-10-11T23:35:37.575Z,10.10
2022-10-11T23:38:04.254Z,10.40
2022-10-11T23:40:31.006Z,10.30
2022-10-11T23:43:00.431Z,10.90
2022-10-11T23:45:27.264Z,11.63
2022-10-11T23:47:56.642Z,10.23
2022-10-11T23:50:23.337Z,10.10
2022-10-11T23:52:54.466Z,10.02
2022-10-11T23:55:23.270Z,10.63
2022-10-11T23:57:49.959Z,10.93
